sensor_id;sensor_type;location;lat;lon;timestamp;P1;durP1;ratioP1;P2;durP2;ratioP2
25569;SDS011;17955;45.542;9.238;2022-10-16T00:01:14;77.20;;;37.08;;
25569;SDS011;17955;45.542;9.238;2022-10-16T00:03:43;69.47;;;38.42;;
25569;SDS011;17955;45.542;9.238;2022-10-16T00:06:11;60.53;;;35.55;;
25569;SDS011;17955;45.542;9.238;2022-10-16T00:08:39;68.60;;;36.85;;
25569;SDS011;17955;45.542;9.238;2022-10-16T00:11:08;58.20;;;34.17;;
25569;SDS011;17955;45.542;9.238;2022-10-16T00:13:38;63.60;;;35.90;;
25569;SDS011;17955;45.542;9.238;2022-10-16T00:16:06;66.60;;;35.85;;
25569;SDS011;17955;45.542;9.238;2022-10-16T00:18:34;61.58;;;35.10;;
25569;SDS011;17955;45.542;9.238;2022-10-16T00:21:02;58.67;;;34.75;;
25569;SDS011;17955;45.542;9.238;2022-10-16T00:23:31;56.72;;;34.38;;
25569;SDS011;17955;45.542;9.238;2022-10-16T00:25:59;58.35;;;34.30;;
25569;SDS011;17955;45.542;9.238;2022-10-16T00:28:29;60.53;;;33.10;;
25569;SDS011;17955;45.542;9.238;2022-10-16T00:30:56;65.55;;;35.25;;
25569;SDS011;17955;45.542;9.238;2022-10-16T00:33:24;65.85;;;35.88;;
25569;SDS011;17955;45.542;9.238;2022-10-16T00:35:53;68.60;;;36.88;;
25569;SDS011;17955;45.542;9.238;2022-10-16T00:38:20;70.05;;;37.42;;
25569;SDS011;17955;45.542;9.238;2022-10-16T00:40:47;67.18;;;37.80;;
25569;SDS011;17955;45.542;9.238;2022-10-16T00:43:14;64.90;;;37.55;;
25569;SDS011;17955;45.542;9.238;2022-10-16T00:46:00;65.43;;;36.30;;
25569;SDS011;17955;45.542;9.238;2022-10-16T00:48:28;57.50;;;34.88;;
25569;SDS011;17955;45.542;9.238;2022-10-16T00:50:56;62.22;;;36.75;;
25569;SDS011;17955;45.542;9.238;2022-10-16T00:53:23;66.82;;;36.80;;
25569;SDS011;17955;45.542;9.238;2022-10-16T00:55:52;67.30;;;35.35;;
25569;SDS011;17955;45.542;9.238;2022-10-16T00:58:20;67.20;;;38.35;;
25569;SDS011;17955;45.542;9.238;2022-10-16T01:00:47;69.57;;;39.00;;
25569;SDS011;17955;45.542;9.238;2022-10-16T01:03:26;70.50;;;37.80;;
25569;SDS011;17955;45.542;9.238;2022-10-16T01:06:00;69.68;;;37.33;;
25569;SDS011;17955;45.542;9.238;2022-10-16T01:08:38;75.13;;;39.10;;
25569;SDS011;17955;45.542;9.238;2022-10-16T01:11:12;70.90;;;38.22;;
25569;SDS011;17955;45.542;9.238;2022-10-16T01:13:51;68.63;;;38.42;;
25569;SDS011;17955;45.542;9.238;2022-10-16T01:16:22;70.45;;;38.97;;
25569;SDS011;17955;45.542;9.238;2022-10-16T01:18:59;74.13;;;39.55;;
25569;SDS011;17955;45.542;9.238;2022-10-16T01:21:34;71.88;;;39.45;;
25569;SDS011;17955;45.542;9.238;2022-10-16T01:24:06;74.38;;;38.65;;
25569;SDS011;17955;45.542;9.238;2022-10-16T01:26:46;80.07;;;40.30;;
25569;SDS011;17955;45.542;9.238;2022-10-16T01:29:28;74.32;;;38.88;;
25569;SDS011;17955;45.542;9.238;2022-10-16T01:32:01;71.57;;;38.70;;
25569;SDS011;17955;45.542;9.238;2022-10-16T01:34:38;70.20;;;38.03;;
25569;SDS011;17955;45.542;9.238;2022-10-16T01:37:12;69.68;;;38.95;;
25569;SDS011;17955;45.542;9.238;2022-10-16T01:39:42;70.07;;;37.53;;
25569;SDS011;17955;45.542;9.238;2022-10-16T01:42:15;70.70;;;38.22;;
25569;SDS011;17955;45.542;9.238;2022-10-16T01:44:48;69.47;;;37.15;;
25569;SDS011;17955;45.542;9.238;2022-10-16T01:47:20;67.88;;;37.08;;
25569;SDS011;17955;45.542;9.238;2022-10-16T01:49:50;67.78;;;37.42;;
25569;SDS011;17955;45.542;9.238;2022-10-16T01:52:23;65.43;;;36.75;;
25569;SDS011;17955;45.542;9.238;2022-10-16T01:54:55;71.10;;;37.88;;
25569;SDS011;17955;45.542;9.238;2022-10-16T01:57:25;64.10;;;36.13;;
25569;SDS011;17955;45.542;9.238;2022-10-16T01:59:54;65.28;;;36.97;;
25569;SDS011;17955;45.542;9.238;2022-10-16T02:02:25;72.70;;;38.35;;
25569;SDS011;17955;45.542;9.238;2022-10-16T02:04:56;71.75;;;36.88;;
25569;SDS011;17955;45.542;9.238;2022-10-16T02:07:27;65.15;;;37.40;;
25569;SDS011;17955;45.542;9.238;2022-10-16T02:09:55;67.82;;;37.55;;
25569;SDS011;17955;45.542;9.238;2022-10-16T02:12:26;69.65;;;38.88;;
25569;SDS011;17955;45.542;9.238;2022-10-16T02:14:56;66.88;;;36.90;;
25569;SDS011;17955;45.542;9.238;2022-10-16T02:17:23;59.92;;;35.05;;
25569;SDS011;17955;45.542;9.238;2022-10-16T02:19:52;65.53;;;35.78;;
25569;SDS011;17955;45.542;9.238;2022-10-16T02:22:21;77.88;;;37.03;;
25569;SDS011;17955;45.542;9.238;2022-10-16T02:24:54;61.70;;;36.00;;
25569;SDS011;17955;45.542;9.238;2022-10-16T02:27:27;62.15;;;35.95;;
25569;SDS011;17955;45.542;9.238;2022-10-16T02:32:33;64.18;;;36.28;;
25569;SDS011;17955;45.542;9.238;2022-10-16T02:35:04;56.45;;;32.42;;
25569;SDS011;17955;45.542;9.238;2022-10-16T02:37:32;62.20;;;34.50;;
25569;SDS011;17955;45.542;9.238;2022-10-16T02:39:59;59.13;;;32.90;;
25569;SDS011;17955;45.542;9.238;2022-10-16T02:42:29;62.28;;;32.33;;
25569;SDS011;17955;45.542;9.238;2022-10-16T02:44:59;59.15;;;32.15;;
25569;SDS011;17955;45.542;9.238;2022-10-16T02:47:26;60.35;;;33.20;;
25569;SDS011;17955;45.542;9.238;2022-10-16T02:49:54;66.82;;;34.72;;
25569;SDS011;17955;45.542;9.238;2022-10-16T02:52:23;63.15;;;35.90;;
25569;SDS011;17955;45.542;9.238;2022-10-16T02:54:50;60.22;;;35.78;;
25569;SDS011;17955;45.542;9.238;2022-10-16T02:57:17;68.80;;;36.63;;
25569;SDS011;17955;45.542;9.238;2022-10-16T02:59:46;59.72;;;34.53;;
25569;SDS011;17955;45.542;9.238;2022-10-16T03:02:13;56.50;;;35.58;;
25569;SDS011;17955;45.542;9.238;2022-10-16T03:04:40;65.97;;;35.75;;
25569;SDS011;17955;45.542;9.238;2022-10-16T03:07:08;63.80;;;36.58;;
25569;SDS011;17955;45.542;9.238;2022-10-16T03:09:35;64.85;;;37.25;;
25569;SDS011;17955;45.542;9.238;2022-10-16T03:12:02;68.63;;;39.00;;
25569;SDS011;17955;45.542;9.238;2022-10-16T03:14:29;71.68;;;40.15;;
25569;SDS011;17955;45.542;9.238;2022-10-16T03:16:58;68.25;;;37.65;;
25569;SDS011;17955;45.542;9.238;2022-10-16T03:19:25;70.50;;;38.65;;
25569;SDS011;17955;45.542;9.238;2022-10-16T03:21:52;73.45;;;38.60;;
25569;SDS011;17955;45.542;9.238;2022-10-16T03:24:19;73.43;;;38.92;;
25569;SDS011;17955;45.542;9.238;2022-10-16T03:26:46;67.45;;;36.67;;
25569;SDS011;17955;45.542;9.238;2022-10-16T03:29:13;68.65;;;38.65;;
25569;SDS011;17955;45.542;9.238;2022-10-16T03:31:40;69.55;;;37.40;;
25569;SDS011;17955;45.542;9.238;2022-10-16T03:34:09;63.67;;;37.50;;
25569;SDS011;17955;45.542;9.238;2022-10-16T03:36:36;66.88;;;38.53;;
25569;SDS011;17955;45.542;9.238;2022-10-16T03:39:03;63.83;;;37.05;;
25569;SDS011;17955;45.542;9.238;2022-10-16T03:41:30;61.38;;;35.75;;
25569;SDS011;17955;45.542;9.238;2022-10-16T03:43:57;65.25;;;36.95;;
25569;SDS011;17955;45.542;9.238;2022-10-16T03:46:24;59.20;;;33.55;;
25569;SDS011;17955;45.542;9.238;2022-10-16T03:48:51;57.63;;;35.25;;
25569;SDS011;17955;45.542;9.238;2022-10-16T03:51:19;53.78;;;33.25;;
25569;SDS011;17955;45.542;9.238;2022-10-16T03:53:46;57.97;;;33.53;;
25569;SDS011;17955;45.542;9.238;2022-10-16T03:56:13;62.85;;;34.53;;
25569;SDS011;17955;45.542;9.238;2022-10-16T03:58:40;60.92;;;32.72;;
25569;SDS011;17955;45.542;9.238;2022-10-16T04:01:07;52.25;;;31.58;;
25569;SDS011;17955;45.542;9.238;2022-10-16T04:03:35;54.55;;;32.25;;
25569;SDS011;17955;45.542;9.238;2022-10-16T04:06:02;57.85;;;32.63;;
25569;SDS011;17955;45.542;9.238;2022-10-16T04:08:30;53.95;;;32.42;;
25569;SDS011;17955;45.542;9.238;2022-10-16T04:10:59;56.80;;;32.63;;
25569;SDS011;17955;45.542;9.238;2022-10-16T04:13:26;52.65;;;31.88;;
25569;SDS011;17955;45.542;9.238;2022-10-16T04:15:53;53.42;;;30.63;;
25569;SDS011;17955;45.542;9.238;2022-10-16T04:18:21;56.25;;;31.50;;
25569;SDS011;17955;45.542;9.238;2022-10-16T04:20:48;57.97;;;31.90;;
25569;SDS011;17955;45.542;9.238;2022-10-16T04:23:15;59.88;;;31.25;;
25569;SDS011;17955;45.542;9.238;2022-10-16T04:25:43;53.97;;;30.45;;
25569;SDS011;17955;45.542;9.238;2022-10-16T04:28:10;55.75;;;30.42;;
25569;SDS011;17955;45.542;9.238;2022-10-16T04:30:37;49.70;;;30.55;;
25569;SDS011;17955;45.542;9.238;2022-10-16T04:33:04;51.25;;;30.00;;
25569;SDS011;17955;45.542;9.238;2022-10-16T04:35:32;48.90;;;29.77;;
25569;SDS011;17955;45.542;9.238;2022-10-16T04:37:59;52.05;;;30.77;;
25569;SDS011;17955;45.542;9.238;2022-10-16T04:40:26;52.42;;;30.10;;
25569;SDS011;17955;45.542;9.238;2022-10-16T04:42:54;48.45;;;29.30;;
25569;SDS011;17955;45.542;9.238;2022-10-16T04:45:21;48.20;;;30.20;;
25569;SDS011;17955;45.542;9.238;2022-10-16T04:47:48;49.03;;;29.10;;
25569;SDS011;17955;45.542;9.238;2022-10-16T04:50:16;52.35;;;28.85;;
25569;SDS011;17955;45.542;9.238;2022-10-16T04:53:00;49.55;;;29.13;;
25569;SDS011;17955;45.542;9.238;2022-10-16T04:55:27;52.85;;;29.58;;
25569;SDS011;17955;45.542;9.238;2022-10-16T04:57:58;44.97;;;28.02;;
25569;SDS011;17955;45.542;9.238;2022-10-16T05:00:25;46.53;;;27.98;;
25569;SDS011;17955;45.542;9.238;2022-10-16T05:02:52;43.05;;;26.42;;
25569;SDS011;17955;45.542;9.238;2022-10-16T05:05:19;47.42;;;26.35;;
25569;SDS011;17955;45.542;9.238;2022-10-16T05:07:47;43.70;;;27.23;;
25569;SDS011;17955;45.542;9.238;2022-10-16T05:10:14;46.28;;;27.27;;
25569;SDS011;17955;45.542;9.238;2022-10-16T05:12:42;44.03;;;26.60;;
25569;SDS011;17955;45.542;9.238;2022-10-16T05:15:11;47.88;;;28.20;;
25569;SDS011;17955;45.542;9.238;2022-10-16T05:17:38;45.45;;;26.70;;
25569;SDS011;17955;45.542;9.238;2022-10-16T05:20:05;41.47;;;23.08;;
25569;SDS011;17955;45.542;9.238;2022-10-16T05:22:33;48.10;;;27.30;;
25569;SDS011;17955;45.542;9.238;2022-10-16T05:25:00;43.55;;;25.55;;
25569;SDS011;17955;45.542;9.238;2022-10-16T05:27:27;38.85;;;23.85;;
25569;SDS011;17955;45.542;9.238;2022-10-16T05:29:55;40.97;;;23.90;;
25569;SDS011;17955;45.542;9.238;2022-10-16T05:32:23;37.85;;;24.05;;
25569;SDS011;17955;45.542;9.238;2022-10-16T05:34:51;40.08;;;24.23;;
25569;SDS011;17955;45.542;9.238;2022-10-16T05:37:18;39.08;;;24.90;;
25569;SDS011;17955;45.542;9.238;2022-10-16T05:39:45;38.10;;;23.45;;
25569;SDS011;17955;45.542;9.238;2022-10-16T05:42:12;42.58;;;24.52;;
25569;SDS011;17955;45.542;9.238;2022-10-16T05:44:40;36.95;;;23.15;;
25569;SDS011;17955;45.542;9.238;2022-10-16T05:47:06;45.28;;;24.35;;
25569;SDS011;17955;45.542;9.238;2022-10-16T05:49:35;40.42;;;23.85;;
25569;SDS011;17955;45.542;9.238;2022-10-16T05:52:05;38.75;;;24.15;;
25569;SDS011;17955;45.542;9.238;2022-10-16T05:54:32;40.03;;;24.15;;
25569;SDS011;17955;45.542;9.238;2022-10-16T05:56:59;37.42;;;23.40;;
25569;SDS011;17955;45.542;9.238;2022-10-16T05:59:27;42.38;;;24.17;;
25569;SDS011;17955;45.542;9.238;2022-10-16T06:01:54;38.75;;;23.08;;
25569;SDS011;17955;45.542;9.238;2022-10-16T06:04:21;34.00;;;22.35;;
25569;SDS011;17955;45.542;9.238;2022-10-16T06:06:49;37.88;;;23.48;;
25569;SDS011;17955;45.542;9.238;2022-10-16T06:09:17;38.53;;;23.60;;
25569;SDS011;17955;45.542;9.238;2022-10-16T06:11:44;42.22;;;23.75;;
25569;SDS011;17955;45.542;9.238;2022-10-16T06:14:11;38.38;;;24.52;;
25569;SDS011;17955;45.542;9.238;2022-10-16T06:16:38;37.67;;;23.98;;
25569;SDS011;17955;45.542;9.238;2022-10-16T06:19:06;41.88;;;25.25;;
25569;SDS011;17955;45.542;9.238;2022-10-16T06:21:34;40.35;;;25.25;;
25569;SDS011;17955;45.542;9.238;2022-10-16T06:24:02;38.25;;;24.17;;
25569;SDS011;17955;45.542;9.238;2022-10-16T06:26:30;42.40;;;25.70;;
25569;SDS011;17955;45.542;9.238;2022-10-16T06:28:58;41.35;;;25.13;;
25569;SDS011;17955;45.542;9.238;2022-10-16T06:31:26;38.47;;;25.13;;
25569;SDS011;17955;45.542;9.238;2022-10-16T06:33:56;40.65;;;25.40;;
25569;SDS011;17955;45.542;9.238;2022-10-16T06:36:23;42.67;;;26.33;;
25569;SDS011;17955;45.542;9.238;2022-10-16T06:38:50;43.70;;;26.63;;
25569;SDS011;17955;45.542;9.238;2022-10-16T06:41:19;43.35;;;27.00;;
25569;SDS011;17955;45.542;9.238;2022-10-16T06:43:48;45.22;;;25.52;;
25569;SDS011;17955;45.542;9.238;2022-10-16T06:46:16;44.35;;;25.00;;
25569;SDS011;17955;45.542;9.238;2022-10-16T06:48:45;43.63;;;26.38;;
25569;SDS011;17955;45.542;9.238;2022-10-16T06:51:13;44.63;;;24.92;;
25569;SDS011;17955;45.542;9.238;2022-10-16T06:53:41;44.30;;;26.55;;
25569;SDS011;17955;45.542;9.238;2022-10-16T06:56:10;39.33;;;25.40;;
25569;SDS011;17955;45.542;9.238;2022-10-16T06:58:39;47.97;;;25.08;;
25569;SDS011;17955;45.542;9.238;2022-10-16T07:01:06;44.42;;;24.23;;
25569;SDS011;17955;45.542;9.238;2022-10-16T07:03:35;41.63;;;25.00;;
25569;SDS011;17955;45.542;9.238;2022-10-16T07:06:02;40.00;;;24.00;;
25569;SDS011;17955;45.542;9.238;2022-10-16T07:08:30;48.13;;;26.27;;
25569;SDS011;17955;45.542;9.238;2022-10-16T07:11:00;39.85;;;24.02;;
25569;SDS011;17955;45.542;9.238;2022-10-16T07:13:27;38.15;;;24.52;;
25569;SDS011;17955;45.542;9.238;2022-10-16T07:15:56;42.30;;;23.88;;
25569;SDS011;17955;45.542;9.238;2022-10-16T07:18:23;38.78;;;23.60;;
25569;SDS011;17955;45.542;9.238;2022-10-16T07:20:52;39.20;;;22.67;;
25569;SDS011;17955;45.542;9.238;2022-10-16T07:23:19;39.83;;;24.27;;
25569;SDS011;17955;45.542;9.238;2022-10-16T07:25:52;44.20;;;23.83;;
25569;SDS011;17955;45.542;9.238;2022-10-16T07:28:20;43.65;;;23.83;;
25569;SDS011;17955;45.542;9.238;2022-10-16T07:30:47;39.97;;;24.45;;
25569;SDS011;17955;45.542;9.238;2022-10-16T07:33:16;36.53;;;23.42;;
25569;SDS011;17955;45.542;9.238;2022-10-16T07:35:50;40.40;;;23.40;;
25569;SDS011;17955;45.542;9.238;2022-10-16T07:38:17;46.60;;;23.67;;
25569;SDS011;17955;45.542;9.238;2022-10-16T07:40:45;45.88;;;24.85;;
25569;SDS011;17955;45.542;9.238;2022-10-16T07:43:15;42.67;;;25.25;;
25569;SDS011;17955;45.542;9.238;2022-10-16T07:45:48;44.78;;;25.35;;
25569;SDS011;17955;45.542;9.238;2022-10-16T07:48:17;41.42;;;24.42;;
25569;SDS011;17955;45.542;9.238;2022-10-16T07:50:44;46.17;;;23.98;;
25569;SDS011;17955;45.542;9.238;2022-10-16T07:53:11;47.20;;;25.00;;
25569;SDS011;17955;45.542;9.238;2022-10-16T07:55:39;49.72;;;25.77;;
25569;SDS011;17955;45.542;9.238;2022-10-16T07:58:06;38.60;;;25.25;;
25569;SDS011;17955;45.542;9.238;2022-10-16T08:00:33;42.60;;;25.58;;
25569;SDS011;17955;45.542;9.238;2022-10-16T08:03:00;42.33;;;24.52;;
25569;SDS011;17955;45.542;9.238;2022-10-16T08:05:29;44.97;;;25.90;;
25569;SDS011;17955;45.542;9.238;2022-10-16T08:07:58;40.67;;;24.67;;
25569;SDS011;17955;45.542;9.238;2022-10-16T08:10:26;46.53;;;24.90;;
25569;SDS011;17955;45.542;9.238;2022-10-16T08:12:54;42.03;;;23.65;;
25569;SDS011;17955;45.542;9.238;2022-10-16T08:15:21;39.55;;;23.65;;
25569;SDS011;17955;45.542;9.238;2022-10-16T08:17:56;39.28;;;24.13;;
25569;SDS011;17955;45.542;9.238;2022-10-16T08:20:23;41.05;;;23.40;;
25569;SDS011;17955;45.542;9.238;2022-10-16T08:22:52;49.63;;;26.02;;
25569;SDS011;17955;45.542;9.238;2022-10-16T08:25:20;37.08;;;23.52;;
25569;SDS011;17955;45.542;9.238;2022-10-16T08:27:47;41.80;;;24.90;;
25569;SDS011;17955;45.542;9.238;2022-10-16T08:30:15;35.45;;;23.42;;
25569;SDS011;17955;45.542;9.238;2022-10-16T08:32:43;36.20;;;23.13;;
25569;SDS011;17955;45.542;9.238;2022-10-16T08:35:11;34.58;;;22.02;;
25569;SDS011;17955;45.542;9.238;2022-10-16T08:37:38;35.95;;;23.67;;
25569;SDS011;17955;45.542;9.238;2022-10-16T08:40:12;38.30;;;23.63;;
25569;SDS011;17955;45.542;9.238;2022-10-16T08:42:47;35.15;;;21.02;;
25569;SDS011;17955;45.542;9.238;2022-10-16T08:45:34;39.63;;;23.80;;
25569;SDS011;17955;45.542;9.238;2022-10-16T08:48:11;44.65;;;23.90;;
25569;SDS011;17955;45.542;9.238;2022-10-16T08:50:44;46.55;;;25.30;;
25569;SDS011;17955;45.542;9.238;2022-10-16T08:53:14;42.20;;;24.20;;
25569;SDS011;17955;45.542;9.238;2022-10-16T08:55:50;42.40;;;24.35;;
25569;SDS011;17955;45.542;9.238;2022-10-16T08:58:18;44.13;;;26.70;;
25569;SDS011;17955;45.542;9.238;2022-10-16T09:00:47;42.15;;;25.30;;
25569;SDS011;17955;45.542;9.238;2022-10-16T09:03:17;46.58;;;26.10;;
25569;SDS011;17955;45.542;9.238;2022-10-16T09:06:08;49.50;;;27.60;;
25569;SDS011;17955;45.542;9.238;2022-10-16T09:08:49;51.65;;;27.30;;
25569;SDS011;17955;45.542;9.238;2022-10-16T09:11:29;49.63;;;28.67;;
25569;SDS011;17955;45.542;9.238;2022-10-16T09:14:06;49.47;;;29.05;;
25569;SDS011;17955;45.542;9.238;2022-10-16T09:16:46;51.00;;;30.50;;
25569;SDS011;17955;45.542;9.238;2022-10-16T09:19:19;52.83;;;30.50;;
25569;SDS011;17955;45.542;9.238;2022-10-16T09:21:50;50.13;;;29.48;;
25569;SDS011;17955;45.542;9.238;2022-10-16T09:24:18;60.00;;;30.38;;
25569;SDS011;17955;45.542;9.238;2022-10-16T09:26:48;57.00;;;32.00;;
25569;SDS011;17955;45.542;9.238;2022-10-16T09:29:15;62.05;;;32.67;;
25569;SDS011;17955;45.542;9.238;2022-10-16T09:31:46;58.70;;;31.55;;
25569;SDS011;17955;45.542;9.238;2022-10-16T09:34:16;56.13;;;32.42;;
25569;SDS011;17955;45.542;9.238;2022-10-16T09:36:46;66.13;;;34.60;;
25569;SDS011;17955;45.542;9.238;2022-10-16T09:39:14;66.95;;;37.13;;
25569;SDS011;17955;45.542;9.238;2022-10-16T09:41:41;73.63;;;38.55;;
25569;SDS011;17955;45.542;9.238;2022-10-16T09:44:17;68.07;;;35.90;;
25569;SDS011;17955;45.542;9.238;2022-10-16T09:46:46;72.10;;;37.35;;
25569;SDS011;17955;45.542;9.238;2022-10-16T09:49:21;73.50;;;38.55;;
25569;SDS011;17955;45.542;9.238;2022-10-16T09:51:49;67.83;;;37.20;;
25569;SDS011;17955;45.542;9.238;2022-10-16T09:54:19;71.13;;;36.97;;
25569;SDS011;17955;45.542;9.238;2022-10-16T09:56:47;75.45;;;37.35;;
25569;SDS011;17955;45.542;9.238;2022-10-16T09:59:18;64.10;;;37.10;;
25569;SDS011;17955;45.542;9.238;2022-10-16T10:01:49;71.85;;;37.80;;
25569;SDS011;17955;45.542;9.238;2022-10-16T10:04:18;73.63;;;37.50;;
25569;SDS011;17955;45.542;9.238;2022-10-16T10:06:46;76.75;;;37.90;;
25569;SDS011;17955;45.542;9.238;2022-10-16T10:09:16;70.40;;;36.72;;
25569;SDS011;17955;45.542;9.238;2022-10-16T10:11:52;65.68;;;36.80;;
25569;SDS011;17955;45.542;9.238;2022-10-16T10:14:23;72.70;;;38.95;;
25569;SDS011;17955;45.542;9.238;2022-10-16T10:16:52;80.80;;;37.80;;
25569;SDS011;17955;45.542;9.238;2022-10-16T10:19:37;74.63;;;38.70;;
25569;SDS011;17955;45.542;9.238;2022-10-16T10:22:13;76.18;;;38.88;;
25569;SDS011;17955;45.542;9.238;2022-10-16T10:24:45;78.00;;;40.15;;
25569;SDS011;17955;45.542;9.238;2022-10-16T10:27:21;69.03;;;38.00;;
25569;SDS011;17955;45.542;9.238;2022-10-16T10:32:29;73.68;;;37.75;;
25569;SDS011;17955;45.542;9.238;2022-10-16T10:35:07;77.35;;;37.40;;
25569;SDS011;17955;45.542;9.238;2022-10-16T10:40:35;68.25;;;38.15;;
25569;SDS011;17955;45.542;9.238;2022-10-16T10:43:15;69.75;;;37.85;;
25569;SDS011;17955;45.542;9.238;2022-10-16T10:45:57;81.25;;;40.35;;
25569;SDS011;17955;45.542;9.238;2022-10-16T10:48:33;69.70;;;38.08;;
25569;SDS011;17955;45.542;9.238;2022-10-16T10:51:18;72.82;;;40.20;;
25569;SDS011;17955;45.542;9.238;2022-10-16T10:53:51;72.68;;;39.47;;
25569;SDS011;17955;45.542;9.238;2022-10-16T10:56:28;75.10;;;39.55;;
25569;SDS011;17955;45.542;9.238;2022-10-16T10:59:20;71.60;;;38.58;;
25569;SDS011;17955;45.542;9.238;2022-10-16T11:02:10;71.95;;;39.70;;
25569;SDS011;17955;45.542;9.238;2022-10-16T11:04:57;79.63;;;38.85;;
25569;SDS011;17955;45.542;9.238;2022-10-16T11:07:43;70.70;;;38.22;;
25569;SDS011;17955;45.542;9.238;2022-10-16T11:10:16;68.80;;;38.40;;
25569;SDS011;17955;45.542;9.238;2022-10-16T11:12:47;76.95;;;39.83;;
25569;SDS011;17955;45.542;9.238;2022-10-16T11:15:19;78.90;;;39.85;;
25569;SDS011;17955;45.542;9.238;2022-10-16T11:17:53;70.35;;;39.03;;
25569;SDS011;17955;45.542;9.238;2022-10-16T11:20:27;70.18;;;39.58;;
25569;SDS011;17955;45.542;9.238;2022-10-16T11:23:00;72.57;;;39.95;;
25569;SDS011;17955;45.542;9.238;2022-10-16T11:25:31;78.75;;;40.22;;
25569;SDS011;17955;45.542;9.238;2022-10-16T11:28:01;72.93;;;38.83;;
25569;SDS011;17955;45.542;9.238;2022-10-16T11:30:35;77.75;;;41.38;;
25569;SDS011;17955;45.542;9.238;2022-10-16T11:33:17;74.82;;;38.47;;
25569;SDS011;17955;45.542;9.238;2022-10-16T11:35:53;79.15;;;41.13;;
25569;SDS011;17955;45.542;9.238;2022-10-16T11:38:27;85.68;;;42.45;;
25569;SDS011;17955;45.542;9.238;2022-10-16T11:41:00;79.22;;;39.30;;
25569;SDS011;17955;45.542;9.238;2022-10-16T11:43:32;76.47;;;40.08;;
25569;SDS011;17955;45.542;9.238;2022-10-16T11:46:04;78.88;;;40.38;;
25569;SDS011;17955;45.542;9.238;2022-10-16T11:48:41;80.10;;;40.72;;
25569;SDS011;17955;45.542;9.238;2022-10-16T11:51:14;74.72;;;40.35;;
25569;SDS011;17955;45.542;9.238;2022-10-16T11:53:48;84.57;;;40.90;;
25569;SDS011;17955;45.542;9.238;2022-10-16T11:56:23;75.80;;;40.22;;
25569;SDS011;17955;45.542;9.238;2022-10-16T11:58:52;84.30;;;41.20;;
25569;SDS011;17955;45.542;9.238;2022-10-16T12:01:26;79.55;;;44.08;;
25569;SDS011;17955;45.542;9.238;2022-10-16T12:04:02;88.47;;;43.77;;
25569;SDS011;17955;45.542;9.238;2022-10-16T12:06:40;76.65;;;42.63;;
25569;SDS011;17955;45.542;9.238;2022-10-16T12:09:11;82.93;;;43.00;;
25569;SDS011;17955;45.542;9.238;2022-10-16T12:11:45;74.72;;;41.47;;
25569;SDS011;17955;45.542;9.238;2022-10-16T12:14:19;73.90;;;40.00;;
25569;SDS011;17955;45.542;9.238;2022-10-16T12:16:52;73.55;;;39.78;;
25569;SDS011;17955;45.542;9.238;2022-10-16T12:19:23;68.25;;;37.92;;
25569;SDS011;17955;45.542;9.238;2022-10-16T12:21:51;68.03;;;38.63;;
25569;SDS011;17955;45.542;9.238;2022-10-16T12:24:21;77.10;;;39.33;;
25569;SDS011;17955;45.542;9.238;2022-10-16T12:26:56;72.47;;;36.95;;
25569;SDS011;17955;45.542;9.238;2022-10-16T12:29:26;75.57;;;38.65;;
25569;SDS011;17955;45.542;9.238;2022-10-16T12:31:58;76.43;;;40.28;;
25569;SDS011;17955;45.542;9.238;2022-10-16T12:34:28;70.32;;;39.15;;
25569;SDS011;17955;45.542;9.238;2022-10-16T12:37:08;71.63;;;40.28;;
25569;SDS011;17955;45.542;9.238;2022-10-16T12:39:37;77.72;;;38.00;;
25569;SDS011;17955;45.542;9.238;2022-10-16T12:42:05;75.82;;;37.90;;
25569;SDS011;17955;45.542;9.238;2022-10-16T12:44:46;69.38;;;38.67;;
25569;SDS011;17955;45.542;9.238;2022-10-16T12:47:19;70.65;;;38.42;;
25569;SDS011;17955;45.542;9.238;2022-10-16T12:49:50;71.22;;;40.38;;
25569;SDS011;17955;45.542;9.238;2022-10-16T12:52:28;71.03;;;37.80;;
25569;SDS011;17955;45.542;9.238;2022-10-16T12:55:02;65.25;;;34.88;;
25569;SDS011;17955;45.542;9.238;2022-10-16T12:57:34;64.63;;;35.60;;
25569;SDS011;17955;45.542;9.238;2022-10-16T13:00:12;56.25;;;32.35;;
25569;SDS011;17955;45.542;9.238;2022-10-16T13:02:54;73.55;;;37.40;;
25569;SDS011;17955;45.542;9.238;2022-10-16T13:05:34;76.70;;;37.90;;
25569;SDS011;17955;45.542;9.238;2022-10-16T13:08:24;69.32;;;35.60;;
25569;SDS011;17955;45.542;9.238;2022-10-16T13:11:12;63.80;;;36.40;;
25569;SDS011;17955;45.542;9.238;2022-10-16T13:13:51;78.32;;;37.67;;
25569;SDS011;17955;45.542;9.238;2022-10-16T13:16:30;74.38;;;39.13;;
25569;SDS011;17955;45.542;9.238;2022-10-16T13:19:10;80.95;;;40.63;;
25569;SDS011;17955;45.542;9.238;2022-10-16T13:21:48;67.78;;;37.00;;
25569;SDS011;17955;45.542;9.238;2022-10-16T13:24:25;66.00;;;35.30;;
25569;SDS011;17955;45.542;9.238;2022-10-16T13:27:09;76.53;;;40.95;;
25569;SDS011;17955;45.542;9.238;2022-10-16T13:29:43;74.33;;;39.83;;
25569;SDS011;17955;45.542;9.238;2022-10-16T13:32:10;73.30;;;37.72;;
25569;SDS011;17955;45.542;9.238;2022-10-16T13:34:43;66.70;;;38.10;;
25569;SDS011;17955;45.542;9.238;2022-10-16T13:37:17;77.80;;;39.95;;
25569;SDS011;17955;45.542;9.238;2022-10-16T13:39:46;64.30;;;37.35;;
25569;SDS011;17955;45.542;9.238;2022-10-16T13:42:14;73.25;;;40.05;;
25569;SDS011;17955;45.542;9.238;2022-10-16T13:44:47;67.40;;;37.97;;
25569;SDS011;17955;45.542;9.238;2022-10-16T13:47:17;71.60;;;39.88;;
25569;SDS011;17955;45.542;9.238;2022-10-16T13:49:45;78.40;;;41.92;;
25569;SDS011;17955;45.542;9.238;2022-10-16T13:52:18;71.25;;;38.08;;
25569;SDS011;17955;45.542;9.238;2022-10-16T13:54:46;94.30;;;45.10;;
25569;SDS011;17955;45.542;9.238;2022-10-16T13:57:13;69.50;;;38.20;;
25569;SDS011;17955;45.542;9.238;2022-10-16T13:59:40;75.00;;;38.60;;
25569;SDS011;17955;45.542;9.238;2022-10-16T14:02:13;80.32;;;41.80;;
25569;SDS011;17955;45.542;9.238;2022-10-16T14:04:45;69.22;;;39.08;;
25569;SDS011;17955;45.542;9.238;2022-10-16T14:07:13;72.63;;;39.85;;
25569;SDS011;17955;45.542;9.238;2022-10-16T14:09:47;77.43;;;40.00;;
25569;SDS011;17955;45.542;9.238;2022-10-16T14:12:15;75.00;;;39.47;;
25569;SDS011;17955;45.542;9.238;2022-10-16T14:14:43;76.80;;;40.47;;
25569;SDS011;17955;45.542;9.238;2022-10-16T14:17:14;75.43;;;39.35;;
25569;SDS011;17955;45.542;9.238;2022-10-16T14:19:45;79.07;;;38.33;;
25569;SDS011;17955;45.542;9.238;2022-10-16T14:22:26;75.45;;;41.20;;
25569;SDS011;17955;45.542;9.238;2022-10-16T14:24:57;79.13;;;38.13;;
25569;SDS011;17955;45.542;9.238;2022-10-16T14:27:26;77.90;;;41.13;;
25569;SDS011;17955;45.542;9.238;2022-10-16T14:30:12;67.93;;;36.70;;
25569;SDS011;17955;45.542;9.238;2022-10-16T14:32:41;81.30;;;41.50;;
25569;SDS011;17955;45.542;9.238;2022-10-16T14:35:22;71.10;;;39.30;;
25569;SDS011;17955;45.542;9.238;2022-10-16T14:37:51;73.70;;;39.53;;
25569;SDS011;17955;45.542;9.238;2022-10-16T14:40:20;74.88;;;39.35;;
25569;SDS011;17955;45.542;9.238;2022-10-16T14:42:49;72.38;;;38.78;;
25569;SDS011;17955;45.542;9.238;2022-10-16T14:45:18;66.55;;;37.80;;
25569;SDS011;17955;45.542;9.238;2022-10-16T14:47:48;70.78;;;37.28;;
25569;SDS011;17955;45.542;9.238;2022-10-16T14:50:17;65.90;;;35.58;;